sensor_id;sensor_type;location;lat;lon;timestamp;temperature;humidity
9103;DHT22;4587;51.434;6.788;2022-12-18T00:01:34;-3.90;99.90
9103;DHT22;4587;51.434;6.788;2022-12-18T00:04:02;-3.80;99.90
9103;DHT22;4587;51.434;6.788;2022-12-18T00:06:29;-3.70;99.90
9103;DHT22;4587;51.434;6.788;2022-12-18T00:08:57;-3.80;99.90
9103;DHT22;4587;51.434;6.788;2022-12-18T00:11:25;-3.80;99.90
9103;DHT22;4587;51.434;6.788;2022-12-18T00:13:52;-3.80;99.90
9103;DHT22;4587;51.434;6.788;2022-12-18T00:16:20;-3.90;99.90
9103;DHT22;4587;51.434;6.788;2022-12-18T00:18:48;-3.90;99.90
9103;DHT22;4587;51.434;6.788;2022-12-18T00:21:15;-3.90;99.90
9103;DHT22;4587;51.434;6.788;2022-12-18T00:23:42;-4.00;99.90
9103;DHT22;4587;51.434;6.788;2022-12-18T00:26:18;-4.00;99.90
9103;DHT22;4587;51.434;6.788;2022-12-18T00:28:45;-4.00;99.90
9103;DHT22;4587;51.434;6.788;2022-12-18T00:31:14;-4.10;99.90
9103;DHT22;4587;51.434;6.788;2022-12-18T00:33:40;-4.10;99.90
9103;DHT22;4587;51.434;6.788;2022-12-18T00:36:17;-4.10;99.90
9103;DHT22;4587;51.434;6.788;2022-12-18T00:38:44;-3.80;99.90
9103;DHT22;4587;51.434;6.788;2022-12-18T00:41:10;-3.70;99.90
9103;DHT22;4587;51.434;6.788;2022-12-18T00:43:37;-3.70;99.90
9103;DHT22;4587;51.434;6.788;2022-12-18T00:46:03;-3.80;99.90
9103;DHT22;4587;51.434;6.788;2022-12-18T00:48:29;-3.80;99.90
9103;DHT22;4587;51.434;6.788;2022-12-18T00:50:55;-3.80;99.90
9103;DHT22;4587;51.434;6.788;2022-12-18T00:53:21;-3.90;99.90
9103;DHT22;4587;51.434;6.788;2022-12-18T00:55:46;-3.90;99.90
9103;DHT22;4587;51.434;6.788;2022-12-18T00:58:14;-4.00;99.90
9103;DHT22;4587;51.434;6.788;2022-12-18T01:00:41;-3.90;99.90
9103;DHT22;4587;51.434;6.788;2022-12-18T01:03:06;-4.00;99.90
9103;DHT22;4587;51.434;6.788;2022-12-18T01:05:32;-4.00;99.90
9103;DHT22;4587;51.434;6.788;2022-12-18T01:07:58;-4.00;99.90
9103;DHT22;4587;51.434;6.788;2022-12-18T01:10:25;-4.10;99.90
9103;DHT22;4587;51.434;6.788;2022-12-18T01:12:51;-4.00;99.90
9103;DHT22;4587;51.434;6.788;2022-12-18T01:15:17;-4.00;99.90
9103;DHT22;4587;51.434;6.788;2022-12-18T01:17:43;-4.00;99.90
9103;DHT22;4587;51.434;6.788;2022-12-18T01:20:10;-3.80;99.90
9103;DHT22;4587;51.434;6.788;2022-12-18T01:22:36;-3.60;99.90
9103;DHT22;4587;51.434;6.788;2022-12-18T01:25:02;-3.60;99.90
9103;DHT22;4587;51.434;6.788;2022-12-18T01:27:28;-3.60;99.90
9103;DHT22;4587;51.434;6.788;2022-12-18T01:29:54;-3.60;99.90
9103;DHT22;4587;51.434;6.788;2022-12-18T01:32:21;-3.60;99.90
9103;DHT22;4587;51.434;6.788;2022-12-18T01:34:47;-3.50;99.90
9103;DHT22;4587;51.434;6.788;2022-12-18T01:37:13;-3.50;99.90
9103;DHT22;4587;51.434;6.788;2022-12-18T01:39:38;-3.50;99.90
9103;DHT22;4587;51.434;6.788;2022-12-18T01:42:12;-3.40;99.90
9103;DHT22;4587;51.434;6.788;2022-12-18T01:50:29;-3.40;99.90
9103;DHT22;4587;51.434;6.788;2022-12-18T01:52:59;-3.30;99.90
9103;DHT22;4587;51.434;6.788;2022-12-18T01:55:29;-3.30;99.90
9103;DHT22;4587;51.434;6.788;2022-12-18T01:57:57;-3.20;99.90
9103;DHT22;4587;51.434;6.788;2022-12-18T02:00:25;-3.20;99.90
9103;DHT22;4587;51.434;6.788;2022-12-18T02:02:52;-3.10;99.90
9103;DHT22;4587;51.434;6.788;2022-12-18T02:14:33;-3.00;99.90
9103;DHT22;4587;51.434;6.788;2022-12-18T02:19:54;-3.10;99.90
9103;DHT22;4587;51.434;6.788;2022-12-18T02:22:41;-3.10;99.90
9103;DHT22;4587;51.434;6.788;2022-12-18T02:28:00;-3.10;99.90
9103;DHT22;4587;51.434;6.788;2022-12-18T02:30:29;-3.10;99.90
9103;DHT22;4587;51.434;6.788;2022-12-18T02:32:58;-3.00;99.90
9103;DHT22;4587;51.434;6.788;2022-12-18T02:35:26;-3.00;99.90
9103;DHT22;4587;51.434;6.788;2022-12-18T02:37:53;-3.00;99.90
9103;DHT22;4587;51.434;6.788;2022-12-18T02:40:19;-3.00;99.90
9103;DHT22;4587;51.434;6.788;2022-12-18T02:42:46;-2.90;99.90
9103;DHT22;4587;51.434;6.788;2022-12-18T02:45:11;-3.00;99.90
9103;DHT22;4587;51.434;6.788;2022-12-18T02:47:39;-3.00;99.90
9103;DHT22;4587;51.434;6.788;2022-12-18T02:55:30;-3.10;99.90
9103;DHT22;4587;51.434;6.788;2022-12-18T03:00:54;-3.10;99.90
9103;DHT22;4587;51.434;6.788;2022-12-18T03:03:51;-3.10;99.90
9103;DHT22;4587;51.434;6.788;2022-12-18T03:09:22;-3.10;99.90
9103;DHT22;4587;51.434;6.788;2022-12-18T03:11:59;-3.10;99.90
9103;DHT22;4587;51.434;6.788;2022-12-18T03:14:50;-3.10;99.90
9103;DHT22;4587;51.434;6.788;2022-12-18T03:17:20;-3.10;99.90
9103;DHT22;4587;51.434;6.788;2022-12-18T03:19:48;-3.10;99.90
9103;DHT22;4587;51.434;6.788;2022-12-18T03:22:15;-3.20;99.90
9103;DHT22;4587;51.434;6.788;2022-12-18T03:24:41;-3.20;99.90
9103;DHT22;4587;51.434;6.788;2022-12-18T03:27:11;-3.30;99.90
9103;DHT22;4587;51.434;6.788;2022-12-18T03:29:46;-3.20;99.90
9103;DHT22;4587;51.434;6.788;2022-12-18T03:32:24;-3.20;99.90
9103;DHT22;4587;51.434;6.788;2022-12-18T03:34:53;-3.20;99.90
9103;DHT22;4587;51.434;6.788;2022-12-18T03:37:20;-3.10;99.90
9103;DHT22;4587;51.434;6.788;2022-12-18T03:39:46;-2.90;99.90
9103;DHT22;4587;51.434;6.788;2022-12-18T03:48:03;-2.90;99.90
9103;DHT22;4587;51.434;6.788;2022-12-18T03:50:43;-2.90;99.90
9103;DHT22;4587;51.434;6.788;2022-12-18T03:53:58;-2.80;99.90
9103;DHT22;4587;51.434;6.788;2022-12-18T03:56:28;-2.60;99.90
9103;DHT22;4587;51.434;6.788;2022-12-18T03:58:56;-2.40;99.90
9103;DHT22;4587;51.434;6.788;2022-12-18T04:01:28;-2.40;99.90
9103;DHT22;4587;51.434;6.788;2022-12-18T04:03:56;-2.40;99.90
9103;DHT22;4587;51.434;6.788;2022-12-18T04:06:23;-2.40;99.90
9103;DHT22;4587;51.434;6.788;2022-12-18T04:08:49;-2.20;99.90
9103;DHT22;4587;51.434;6.788;2022-12-18T04:11:16;-2.20;99.90
9103;DHT22;4587;51.434;6.788;2022-12-18T04:13:42;-2.30;99.90
9103;DHT22;4587;51.434;6.788;2022-12-18T04:16:08;-2.30;99.90
9103;DHT22;4587;51.434;6.788;2022-12-18T04:18:35;-2.30;99.90
9103;DHT22;4587;51.434;6.788;2022-12-18T04:21:01;-2.30;99.90
9103;DHT22;4587;51.434;6.788;2022-12-18T04:23:26;-2.30;99.90
9103;DHT22;4587;51.434;6.788;2022-12-18T04:25:52;-2.40;99.90
9103;DHT22;4587;51.434;6.788;2022-12-18T04:28:18;-2.50;99.90
9103;DHT22;4587;51.434;6.788;2022-12-18T04:30:43;-2.40;99.90
9103;DHT22;4587;51.434;6.788;2022-12-18T04:33:12;-2.40;99.90
9103;DHT22;4587;51.434;6.788;2022-12-18T04:35:45;-2.40;99.90
9103;DHT22;4587;51.434;6.788;2022-12-18T04:38:11;-2.40;99.90
9103;DHT22;4587;51.434;6.788;2022-12-18T04:40:37;-2.40;99.90
9103;DHT22;4587;51.434;6.788;2022-12-18T04:43:03;-2.30;99.90
9103;DHT22;4587;51.434;6.788;2022-12-18T04:45:30;-2.30;99.90
9103;DHT22;4587;51.434;6.788;2022-12-18T04:47:57;-2.40;99.90
9103;DHT22;4587;51.434;6.788;2022-12-18T04:50:23;-2.40;99.90
9103;DHT22;4587;51.434;6.788;2022-12-18T04:52:49;-2.40;99.90
9103;DHT22;4587;51.434;6.788;2022-12-18T04:55:14;-2.50;99.90
9103;DHT22;4587;51.434;6.788;2022-12-18T04:57:40;-2.60;99.90
9103;DHT22;4587;51.434;6.788;2022-12-18T05:00:06;-2.60;99.90
9103;DHT22;4587;51.434;6.788;2022-12-18T05:02:32;-2.70;99.90
9103;DHT22;4587;51.434;6.788;2022-12-18T05:04:57;-2.80;99.90
9103;DHT22;4587;51.434;6.788;2022-12-18T05:07:23;-2.80;99.90
9103;DHT22;4587;51.434;6.788;2022-12-18T05:09:48;-2.80;99.90
9103;DHT22;4587;51.434;6.788;2022-12-18T05:12:14;-2.90;99.90
9103;DHT22;4587;51.434;6.788;2022-12-18T05:14:40;-2.90;99.90
9103;DHT22;4587;51.434;6.788;2022-12-18T05:17:05;-2.90;99.90
9103;DHT22;4587;51.434;6.788;2022-12-18T05:19:31;-2.90;99.90
9103;DHT22;4587;51.434;6.788;2022-12-18T05:21:56;-2.90;99.90
9103;DHT22;4587;51.434;6.788;2022-12-18T05:24:22;-2.90;99.90
9103;DHT22;4587;51.434;6.788;2022-12-18T05:26:48;-3.00;99.90
9103;DHT22;4587;51.434;6.788;2022-12-18T05:29:13;-3.00;99.90
9103;DHT22;4587;51.434;6.788;2022-12-18T05:31:39;-3.00;99.90
9103;DHT22;4587;51.434;6.788;2022-12-18T05:34:05;-3.00;99.90
9103;DHT22;4587;51.434;6.788;2022-12-18T05:36:31;-3.00;99.90
9103;DHT22;4587;51.434;6.788;2022-12-18T05:38:56;-3.00;99.90
9103;DHT22;4587;51.434;6.788;2022-12-18T05:41:22;-3.10;99.90
9103;DHT22;4587;51.434;6.788;2022-12-18T05:43:47;-3.10;99.90
9103;DHT22;4587;51.434;6.788;2022-12-18T05:46:15;-3.20;99.90
9103;DHT22;4587;51.434;6.788;2022-12-18T05:48:42;-3.20;99.90
9103;DHT22;4587;51.434;6.788;2022-12-18T05:51:10;-3.20;99.90
9103;DHT22;4587;51.434;6.788;2022-12-18T05:53:37;-3.20;99.90
9103;DHT22;4587;51.434;6.788;2022-12-18T05:56:05;-3.30;99.90
9103;DHT22;4587;51.434;6.788;2022-12-18T05:58:32;-3.30;99.90
9103;DHT22;4587;51.434;6.788;2022-12-18T06:01:05;-3.40;99.90
9103;DHT22;4587;51.434;6.788;2022-12-18T06:03:31;-3.40;99.90
9103;DHT22;4587;51.434;6.788;2022-12-18T06:05:56;-3.40;99.90
9103;DHT22;4587;51.434;6.788;2022-12-18T06:08:22;-3.50;99.90
9103;DHT22;4587;51.434;6.788;2022-12-18T06:10:52;-3.50;99.90
9103;DHT22;4587;51.434;6.788;2022-12-18T06:13:18;-3.50;99.90
9103;DHT22;4587;51.434;6.788;2022-12-18T06:15:44;-3.60;99.90
9103;DHT22;4587;51.434;6.788;2022-12-18T06:18:09;-3.60;99.90
9103;DHT22;4587;51.434;6.788;2022-12-18T06:20:35;-3.60;99.90
9103;DHT22;4587;51.434;6.788;2022-12-18T06:23:03;-3.60;99.90
9103;DHT22;4587;51.434;6.788;2022-12-18T06:25:28;-3.60;99.90
9103;DHT22;4587;51.434;6.788;2022-12-18T06:27:54;-3.60;99.90
9103;DHT22;4587;51.434;6.788;2022-12-18T06:30:20;-3.60;99.90
9103;DHT22;4587;51.434;6.788;2022-12-18T06:32:46;-3.60;99.90
9103;DHT22;4587;51.434;6.788;2022-12-18T06:35:12;-3.60;99.90
9103;DHT22;4587;51.434;6.788;2022-12-18T06:37:38;-3.70;99.90
9103;DHT22;4587;51.434;6.788;2022-12-18T06:40:04;-3.60;99.90
9103;DHT22;4587;51.434;6.788;2022-12-18T06:42:30;-3.70;99.90
9103;DHT22;4587;51.434;6.788;2022-12-18T06:44:55;-3.70;99.90
9103;DHT22;4587;51.434;6.788;2022-12-18T06:47:21;-3.70;99.90
9103;DHT22;4587;51.434;6.788;2022-12-18T06:49:47;-3.70;99.90
9103;DHT22;4587;51.434;6.788;2022-12-18T06:52:12;-3.70;99.90
9103;DHT22;4587;51.434;6.788;2022-12-18T06:54:38;-3.70;99.90
9103;DHT22;4587;51.434;6.788;2022-12-18T06:57:03;-3.70;99.90
9103;DHT22;4587;51.434;6.788;2022-12-18T06:59:29;-3.80;99.90
9103;DHT22;4587;51.434;6.788;2022-12-18T07:01:54;-3.80;99.90
9103;DHT22;4587;51.434;6.788;2022-12-18T07:04:20;-3.80;99.90
9103;DHT22;4587;51.434;6.788;2022-12-18T07:06:45;-3.90;99.90
9103;DHT22;4587;51.434;6.788;2022-12-18T07:09:11;-3.90;99.90
9103;DHT22;4587;51.434;6.788;2022-12-18T07:11:36;-3.90;99.90
9103;DHT22;4587;51.434;6.788;2022-12-18T07:14:02;-3.90;99.90
9103;DHT22;4587;51.434;6.788;2022-12-18T07:16:27;-3.90;99.90
9103;DHT22;4587;51.434;6.788;2022-12-18T07:18:56;-3.80;99.90
9103;DHT22;4587;51.434;6.788;2022-12-18T07:21:23;-3.80;99.90
9103;DHT22;4587;51.434;6.788;2022-12-18T07:23:49;-3.90;99.90
9103;DHT22;4587;51.434;6.788;2022-12-18T07:26:16;-3.90;99.90
9103;DHT22;4587;51.434;6.788;2022-12-18T07:28:42;-3.80;99.90
9103;DHT22;4587;51.434;6.788;2022-12-18T07:31:11;-3.90;99.90
9103;DHT22;4587;51.434;6.788;2022-12-18T07:33:37;-3.90;99.90
9103;DHT22;4587;51.434;6.788;2022-12-18T07:36:05;-3.90;99.90
9103;DHT22;4587;51.434;6.788;2022-12-18T07:38:32;-3.90;99.90
9103;DHT22;4587;51.434;6.788;2022-12-18T07:41:02;-3.80;99.90
9103;DHT22;4587;51.434;6.788;2022-12-18T07:43:28;-3.80;99.90
9103;DHT22;4587;51.434;6.788;2022-12-18T07:45:53;-3.70;99.90
9103;DHT22;4587;51.434;6.788;2022-12-18T07:48:19;-3.80;99.90
9103;DHT22;4587;51.434;6.788;2022-12-18T07:50:45;-3.80;99.90
9103;DHT22;4587;51.434;6.788;2022-12-18T07:53:10;-3.90;99.90
9103;DHT22;4587;51.434;6.788;2022-12-18T07:55:36;-3.80;99.90
9103;DHT22;4587;51.434;6.788;2022-12-18T07:58:02;-3.80;99.90
9103;DHT22;4587;51.434;6.788;2022-12-18T08:00:28;-3.80;99.90
9103;DHT22;4587;51.434;6.788;2022-12-18T08:02:53;-3.70;99.90
9103;DHT22;4587;51.434;6.788;2022-12-18T08:05:19;-3.70;99.90
9103;DHT22;4587;51.434;6.788;2022-12-18T08:07:46;-3.60;99.90
9103;DHT22;4587;51.434;6.788;2022-12-18T08:10:11;-3.60;99.90
9103;DHT22;4587;51.434;6.788;2022-12-18T08:12:37;-3.50;99.90
9103;DHT22;4587;51.434;6.788;2022-12-18T08:15:03;-3.50;99.90
9103;DHT22;4587;51.434;6.788;2022-12-18T08:17:29;-3.40;99.90
9103;DHT22;4587;51.434;6.788;2022-12-18T08:19:54;-3.40;99.90
9103;DHT22;4587;51.434;6.788;2022-12-18T08:22:20;-3.30;99.90
9103;DHT22;4587;51.434;6.788;2022-12-18T08:24:45;-3.20;99.90
9103;DHT22;4587;51.434;6.788;2022-12-18T08:27:11;-3.10;99.90
9103;DHT22;4587;51.434;6.788;2022-12-18T08:29:36;-2.60;99.90
9103;DHT22;4587;51.434;6.788;2022-12-18T08:32:05;-2.00;99.90
9103;DHT22;4587;51.434;6.788;2022-12-18T08:34:31;-1.90;99.90
9103;DHT22;4587;51.434;6.788;2022-12-18T08:36:56;-1.70;99.90
9103;DHT22;4587;51.434;6.788;2022-12-18T08:39:22;-1.70;99.90
9103;DHT22;4587;51.434;6.788;2022-12-18T08:41:48;-1.70;99.90
9103;DHT22;4587;51.434;6.788;2022-12-18T08:44:33;-1.70;99.90
9103;DHT22;4587;51.434;6.788;2022-12-18T08:47:07;-1.70;99.90
9103;DHT22;4587;51.434;6.788;2022-12-18T08:49:34;-1.60;99.90
9103;DHT22;4587;51.434;6.788;2022-12-18T08:52:00;-1.40;99.90
9103;DHT22;4587;51.434;6.788;2022-12-18T08:54:26;-1.10;99.90
9103;DHT22;4587;51.434;6.788;2022-12-18T08:56:52;-0.90;99.90
9103;DHT22;4587;51.434;6.788;2022-12-18T08:59:18;-0.80;99.90
9103;DHT22;4587;51.434;6.788;2022-12-18T09:01:44;-0.70;99.90
9103;DHT22;4587;51.434;6.788;2022-12-18T09:04:10;-0.50;99.90
9103;DHT22;4587;51.434;6.788;2022-12-18T09:06:36;-0.30;99.90
9103;DHT22;4587;51.434;6.788;2022-12-18T09:09:03;-0.10;99.90
9103;DHT22;4587;51.434;6.788;2022-12-18T09:11:29;0.10;99.90
9103;DHT22;4587;51.434;6.788;2022-12-18T09:13:55;0.30;99.90
9103;DHT22;4587;51.434;6.788;2022-12-18T09:16:22;0.50;99.90
9103;DHT22;4587;51.434;6.788;2022-12-18T09:18:48;0.70;99.90
9103;DHT22;4587;51.434;6.788;2022-12-18T09:21:17;0.90;99.90
9103;DHT22;4587;51.434;6.788;2022-12-18T09:23:43;1.00;99.90
9103;DHT22;4587;51.434;6.788;2022-12-18T09:26:09;1.00;99.90
9103;DHT22;4587;51.434;6.788;2022-12-18T09:28:34;0.90;99.90
9103;DHT22;4587;51.434;6.788;2022-12-18T09:31:07;0.80;99.90
9103;DHT22;4587;51.434;6.788;2022-12-18T09:33:34;0.80;99.90
9103;DHT22;4587;51.434;6.788;2022-12-18T09:36:02;0.80;99.90
9103;DHT22;4587;51.434;6.788;2022-12-18T09:38:28;0.80;99.90
9103;DHT22;4587;51.434;6.788;2022-12-18T09:40:59;0.80;99.90
9103;DHT22;4587;51.434;6.788;2022-12-18T09:43:47;0.90;99.90
9103;DHT22;4587;51.434;6.788;2022-12-18T09:46:26;0.90;99.90
9103;DHT22;4587;51.434;6.788;2022-12-18T09:48:56;1.00;99.90
9103;DHT22;4587;51.434;6.788;2022-12-18T09:51:32;1.20;99.90
9103;DHT22;4587;51.434;6.788;2022-12-18T09:54:04;1.10;99.90
9103;DHT22;4587;51.434;6.788;2022-12-18T09:56:35;1.20;99.90
9103;DHT22;4587;51.434;6.788;2022-12-18T09:59:03;1.20;99.90
9103;DHT22;4587;51.434;6.788;2022-12-18T10:01:31;1.30;99.90
9103;DHT22;4587;51.434;6.788;2022-12-18T10:03:57;1.30;99.90
9103;DHT22;4587;51.434;6.788;2022-12-18T10:06:34;1.50;99.90
9103;DHT22;4587;51.434;6.788;2022-12-18T10:11:49;1.60;99.90
9103;DHT22;4587;51.434;6.788;2022-12-18T10:14:22;1.70;99.90
9103;DHT22;4587;51.434;6.788;2022-12-18T10:17:11;1.70;99.90
9103;DHT22;4587;51.434;6.788;2022-12-18T10:19:58;1.80;99.90
9103;DHT22;4587;51.434;6.788;2022-12-18T10:22:57;1.90;99.90
9103;DHT22;4587;51.434;6.788;2022-12-18T10:25:39;2.00;99.90
9103;DHT22;4587;51.434;6.788;2022-12-18T10:28:14;2.10;99.90
9103;DHT22;4587;51.434;6.788;2022-12-18T10:30:42;2.10;99.90
9103;DHT22;4587;51.434;6.788;2022-12-18T10:33:17;2.20;99.90
9103;DHT22;4587;51.434;6.788;2022-12-18T10:35:44;2.20;99.90
9103;DHT22;4587;51.434;6.788;2022-12-18T10:40:57;2.30;99.90
9103;DHT22;4587;51.434;6.788;2022-12-18T10:43:31;2.30;99.90
9103;DHT22;4587;51.434;6.788;2022-12-18T10:48:30;2.40;99.90
9103;DHT22;4587;51.434;6.788;2022-12-18T10:50:56;2.40;99.90
9103;DHT22;4587;51.434;6.788;2022-12-18T10:53:31;2.50;99.90
9103;DHT22;4587;51.434;6.788;2022-12-18T10:56:03;2.50;99.90
9103;DHT22;4587;51.434;6.788;2022-12-18T10:58:36;2.60;99.90
9103;DHT22;4587;51.434;6.788;2022-12-18T11:06:21;2.60;99.90
9103;DHT22;4587;51.434;6.788;2022-12-18T11:11:28;2.60;99.90
9103;DHT22;4587;51.434;6.788;2022-12-18T11:14:04;2.60;99.90
9103;DHT22;4587;51.434;6.788;2022-12-18T11:16:45;2.60;99.90
9103;DHT22;4587;51.434;6.788;2022-12-18T11:19:39;2.70;99.90
9103;DHT22;4587;51.434;6.788;2022-12-18T11:22:31;2.80;99.90
9103;DHT22;4587;51.434;6.788;2022-12-18T11:25:01;2.80;99.90
9103;DHT22;4587;51.434;6.788;2022-12-18T11:27:28;2.80;99.90
9103;DHT22;4587;51.434;6.788;2022-12-18T11:30:07;2.90;99.90
9103;DHT22;4587;51.434;6.788;2022-12-18T11:32:39;2.90;99.90
9103;DHT22;4587;51.434;6.788;2022-12-18T11:35:25;2.90;99.90
9103;DHT22;4587;51.434;6.788;2022-12-18T11:37:57;2.90;99.90
9103;DHT22;4587;51.434;6.788;2022-12-18T11:40:32;2.80;99.90
9103;DHT22;4587;51.434;6.788;2022-12-18T11:43:26;2.80;99.90
9103;DHT22;4587;51.434;6.788;2022-12-18T11:45:58;3.00;99.90
9103;DHT22;4587;51.434;6.788;2022-12-18T11:48:29;3.00;99.90
9103;DHT22;4587;51.434;6.788;2022-12-18T11:50:57;2.90;99.90
9103;DHT22;4587;51.434;6.788;2022-12-18T11:53:27;3.00;99.90
9103;DHT22;4587;51.434;6.788;2022-12-18T11:56:21;3.00;99.90
9103;DHT22;4587;51.434;6.788;2022-12-18T12:01:43;3.00;99.90
9103;DHT22;4587;51.434;6.788;2022-12-18T12:04:30;3.00;99.90
9103;DHT22;4587;51.434;6.788;2022-12-18T12:13:07;3.00;99.90
9103;DHT22;4587;51.434;6.788;2022-12-18T12:37:11;3.00;99.90
9103;DHT22;4587;51.434;6.788;2022-12-18T12:39:40;3.00;99.90
9103;DHT22;4587;51.434;6.788;2022-12-18T12:42:26;3.00;99.90
9103;DHT22;4587;51.434;6.788;2022-12-18T12:45:22;3.00;99.90
9103;DHT22;4587;51.434;6.788;2022-12-18T12:47:50;3.00;99.90
9103;DHT22;4587;51.434;6.788;2022-12-18T12:50:18;3.10;99.90
9103;DHT22;4587;51.434;6.788;2022-12-18T12:52:52;3.10;99.90
9103;DHT22;4587;51.434;6.788;2022-12-18T12:55:24;3.00;99.90
9103;DHT22;4587;51.434;6.788;2022-12-18T12:58:08;2.90;99.90
9103;DHT22;4587;51.434;6.788;2022-12-18T13:00:46;2.90;99.90
9103;DHT22;4587;51.434;6.788;2022-12-18T13:03:27;2.90;99.90
9103;DHT22;4587;51.434;6.788;2022-12-18T13:06:02;2.90;99.90
9103;DHT22;4587;51.434;6.788;2022-12-18T13:08:31;2.90;99.90
9103;DHT22;4587;51.434;6.788;2022-12-18T13:11:46;2.90;99.90
9103;DHT22;4587;51.434;6.788;2022-12-18T13:14:34;2.80;99.90
9103;DHT22;4587;51.434;6.788;2022-12-18T13:17:27;2.80;99.90
9103;DHT22;4587;51.434;6.788;2022-12-18T13:20:12;2.80;99.90
9103;DHT22;4587;51.434;6.788;2022-12-18T13:22:47;2.80;99.90
9103;DHT22;4587;51.434;6.788;2022-12-18T13:28:04;2.70;99.90
9103;DHT22;4587;51.434;6.788;2022-12-18T13:35:41;2.50;99.90
9103;DHT22;4587;51.434;6.788;2022-12-18T13:38:32;2.60;99.90
9103;DHT22;4587;51.434;6.788;2022-12-18T13:49:03;2.60;99.90
9103;DHT22;4587;51.434;6.788;2022-12-18T13:51:31;2.60;99.90
9103;DHT22;4587;51.434;6.788;2022-12-18T13:54:00;2.50;99.90
9103;DHT22;4587;51.434;6.788;2022-12-18T13:56:32;2.40;99.90
9103;DHT22;4587;51.434;6.788;2022-12-18T13:59:20;2.50;99.90
9103;DHT22;4587;51.434;6.788;2022-12-18T14:02:14;2.40;99.90
9103;DHT22;4587;51.434;6.788;2022-12-18T14:04:40;2.40;99.90
9103;DHT22;4587;51.434;6.788;2022-12-18T14:07:07;2.50;99.90
9103;DHT22;4587;51.434;6.788;2022-12-18T14:09:39;2.50;99.90
9103;DHT22;4587;51.434;6.788;2022-12-18T14:12:05;2.40;99.90
9103;DHT22;4587;51.434;6.788;2022-12-18T14:14:52;2.50;99.90
9103;DHT22;4587;51.434;6.788;2022-12-18T14:17:18;2.50;99.90
9103;DHT22;4587;51.434;6.788;2022-12-18T14:19:49;2.50;99.90
9103;DHT22;4587;51.434;6.788;2022-12-18T14:22:26;2.40;99.90
9103;DHT22;4587;51.434;6.788;2022-12-18T14:25:20;2.50;99.90
9103;DHT22;4587;51.434;6.788;2022-12-18T14:27:52;2.50;99.90
9103;DHT22;4587;51.434;6.788;2022-12-18T14:30:25;2.40;99.90
9103;DHT22;4587;51.434;6.788;2022-12-18T14:33:14;2.40;99.90
9103;DHT22;4587;51.434;6.788;2022-12-18T14:35:58;2.30;99.90
9103;DHT22;4587;51.434;6.788;2022-12-18T14:38:33;2.40;99.90
9103;DHT22;4587;51.434;6.788;2022-12-18T14:41:02;2.30;99.90
9103;DHT22;4587;51.434;6.788;2022-12-18T14:43:30;2.40;99.90
9103;DHT22;4587;51.434;6.788;2022-12-18T14:45:56;2.40;99.90
9103;DHT22;4587;51.434;6.788;2022-12-18T14:48:42;2.30;99.90
9103;DHT22;4587;51.434;6.788;2022-12-18T14:53:41;2.30;99.90
9103;DHT22;4587;51.434;6.788;2022-12-18T14:56:31;2.20;99.90
9103;DHT22;4587;51.434;6.788;2022-12-18T14:59:02;2.30;99.90
9103;DHT22;4587;51.434;6.788;2022-12-18T15:01:35;2.20;99.90
9103;DHT22;4587;51.434;6.788;2022-12-18T15:04:03;2.20;99.90
9103;DHT22;4587;51.434;6.788;2022-12-18T15:06:35;2.20;99.90
9103;DHT22;4587;51.434;6.788;2022-12-18T15:09:06;2.30;99.90
9103;DHT22;4587;51.434;6.788;2022-12-18T15:11:46;2.30;99.90
9103;DHT22;4587;51.434;6.788;2022-12-18T15:14:35;2.30;99.90
9103;DHT22;4587;51.434;6.788;2022-12-18T15:17:17;2.30;99.90
9103;DHT22;4587;51.434;6.788;2022-12-18T15:19:44;2.30;99.90
9103;DHT22;4587;51.434;6.788;2022-12-18T15:24:45;2.20;99.90
9103;DHT22;4587;51.434;6.788;2022-12-18T15:27:23;2.10;99.90
9103;DHT22;4587;51.434;6.788;2022-12-18T15:32:35;2.10;99.90
9103;DHT22;4587;51.434;6.788;2022-12-18T15:37:39;2.20;99.90
9103;DHT22;4587;51.434;6.788;2022-12-18T15:40:06;2.10;99.90
9103;DHT22;4587;51.434;6.788;2022-12-18T15:42:32;2.10;99.90
9103;DHT22;4587;51.434;6.788;2022-12-18T15:45:16;2.20;99.90
9103;DHT22;4587;51.434;6.788;2022-12-18T15:47:41;2.20;99.90
9103;DHT22;4587;51.434;6.788;2022-12-18T15:50:08;2.20;99.90
9103;DHT22;4587;51.434;6.788;2022-12-18T15:52:40;2.10;99.90
9103;DHT22;4587;51.434;6.788;2022-12-18T15:55:23;2.00;99.90
9103;DHT22;4587;51.434;6.788;2022-12-18T15:58:08;2.10;99.90
9103;DHT22;4587;51.434;6.788;2022-12-18T16:00:36;2.10;99.90
9103;DHT22;4587;51.434;6.788;2022-12-18T16:03:03;2.00;99.90
9103;DHT22;4587;51.434;6.788;2022-12-18T16:05:29;2.10;99.90
9103;DHT22;4587;51.434;6.788;2022-12-18T16:07:55;2.00;99.90
9103;DHT22;4587;51.434;6.788;2022-12-18T16:10:21;2.00;99.90
9103;DHT22;4587;51.434;6.788;2022-12-18T16:12:47;2.00;99.90
9103;DHT22;4587;51.434;6.788;2022-12-18T16:15:14;2.00;99.90
9103;DHT22;4587;51.434;6.788;2022-12-18T16:17:42;2.00;99.90
9103;DHT22;4587;51.434;6.788;2022-12-18T16:20:19;2.00;99.90
9103;DHT22;4587;51.434;6.788;2022-12-18T16:22:46;2.00;99.90
9103;DHT22;4587;51.434;6.788;2022-12-18T16:25:24;2.00;99.90
9103;DHT22;4587;51.434;6.788;2022-12-18T16:27:51;1.90;99.90
9103;DHT22;4587;51.434;6.788;2022-12-18T16:30:23;1.90;99.90
9103;DHT22;4587;51.434;6.788;2022-12-18T16:32:49;1.90;99.90
9103;DHT22;4587;51.434;6.788;2022-12-18T16:35:16;1.80;99.90
9103;DHT22;4587;51.434;6.788;2022-12-18T16:37:42;1.90;99.90
9103;DHT22;4587;51.434;6.788;2022-12-18T16:40:10;1.90;99.90
9103;DHT22;4587;51.434;6.788;2022-12-18T16:42:41;1.80;99.90
9103;DHT22;4587;51.434;6.788;2022-12-18T16:45:09;1.80;99.90
9103;DHT22;4587;51.434;6.788;2022-12-18T16:47:36;1.80;99.90
9103;DHT22;4587;51.434;6.788;2022-12-18T16:50:02;1.80;99.90
9103;DHT22;4587;51.434;6.788;2022-12-18T16:52:28;1.70;99.90
9103;DHT22;4587;51.434;6.788;2022-12-18T16:54:54;1.80;99.90
9103;DHT22;4587;51.434;6.788;2022-12-18T16:57:20;1.70;99.90
9103;DHT22;4587;51.434;6.788;2022-12-18T16:59:46;1.70;99.90
9103;DHT22;4587;51.434;6.788;2022-12-18T17:02:16;1.70;99.90
9103;DHT22;4587;51.434;6.788;2022-12-18T17:04:42;1.70;99.90
9103;DHT22;4587;51.434;6.788;2022-12-18T17:07:08;1.60;99.90
9103;DHT22;4587;51.434;6.788;2022-12-18T17:09:34;1.70;99.90
9103;DHT22;4587;51.434;6.788;2022-12-18T17:11:59;1.60;99.90
9103;DHT22;4587;51.434;6.788;2022-12-18T17:14:26;1.60;99.90
9103;DHT22;4587;51.434;6.788;2022-12-18T17:16:53;1.60;99.90
9103;DHT22;4587;51.434;6.788;2022-12-18T17:19:19;1.60;99.90
9103;DHT22;4587;51.434;6.788;2022-12-18T17:21:47;1.60;99.90
9103;DHT22;4587;51.434;6.788;2022-12-18T17:24:14;1.60;99.90
9103;DHT22;4587;51.434;6.788;2022-12-18T17:26:40;1.60;99.90
9103;DHT22;4587;51.434;6.788;2022-12-18T17:29:05;1.60;99.90
9103;DHT22;4587;51.434;6.788;2022-12-18T17:31:32;1.60;99.90
9103;DHT22;4587;51.434;6.788;2022-12-18T17:33:58;1.60;99.90
9103;DHT22;4587;51.434;6.788;2022-12-18T17:36:25;1.50;99.90
9103;DHT22;4587;51.434;6.788;2022-12-18T17:38:57;1.50;99.90
9103;DHT22;4587;51.434;6.788;2022-12-18T17:41:23;1.50;99.90
9103;DHT22;4587;51.434;6.788;2022-12-18T17:43:53;1.50;99.90
9103;DHT22;4587;51.434;6.788;2022-12-18T17:46:19;1.50;99.90
9103;DHT22;4587;51.434;6.788;2022-12-18T17:48:45;1.50;99.90
9103;DHT22;4587;51.434;6.788;2022-12-18T17:51:11;1.50;99.90
9103;DHT22;4587;51.434;6.788;2022-12-18T17:53:37;1.40;99.90
9103;DHT22;4587;51.434;6.788;2022-12-18T17:56:04;1.40;99.90
9103;DHT22;4587;51.434;6.788;2022-12-18T17:58:31;1.40;99.90
9103;DHT22;4587;51.434;6.788;2022-12-18T18:01:00;1.40;99.90
9103;DHT22;4587;51.434;6.788;2022-12-18T18:03:25;1.40;99.90
9103;DHT22;4587;51.434;6.788;2022-12-18T18:05:59;1.40;99.90
9103;DHT22;4587;51.434;6.788;2022-12-18T18:08:25;1.40;99.90
9103;DHT22;4587;51.434;6.788;2022-12-18T18:10:51;1.40;99.90
9103;DHT22;4587;51.434;6.788;2022-12-18T18:13:20;1.40;99.90
9103;DHT22;4587;51.434;6.788;2022-12-18T18:16:04;1.30;99.90
9103;DHT22;4587;51.434;6.788;2022-12-18T18:18:30;1.30;99.90